Race Coverage Navigation

TS # 7 / Prescott, AZ  2019

 


TS STATS
TS Distance 50.45 
Total Distance 445.54 
Miles To Go 2624.74 
TS Climbing 445 
Total Climbing
TS  Elevation
TS  Net Elevation 710 
Map Filename Open Map 
Directions Filename  
Latitude 34.56 
Longitude -112.49 
Google Map  TimeStation Map 


TS Arrival Data
Arr Ord  #/Name Arrival DT TS Dst Avg This TS Ascending Avg Overall
 1 605 - Christian Echavarria  06/13/2019 11:38 50.45  3.63  10.3 
 2 539 - Kari Rouvinen  06/13/2019 6:12 50.45  5.29  11.8 
 3 R115 - Kym Louie  06/13/2019 7:35 50.45  5.62  11.05 
 4 563 - Team Nico Ultracycling - In Fight against Cancer   06/13/2019 11:16 50.45  6.12  10.4 
 5 622 - Thomas Odom-Team Kyle Pease Foundation  06/13/2019 1:02 50.45  6.23  13.56 
 6 R116 - Philippe May  06/13/2019 9:42 50.45  6.25  10.53 
 7 R112 - John Hoopingarner  06/13/2019 11:04 50.45  6.5  10.21 
 8 T205 - Prevent Breast Cancer powered by Endomag  06/16/2019 23:16 50.45  6.51  13.84 
 9 R207 - We Might Make It!  06/13/2019 1:57 50.45  6.8  12.78 
 10 329 - Peter Oyler  06/12/2019 23:22 50.45  6.96  14.48 
 11 399 - Valerio Zamboni  06/13/2019 6:14 50.45  7.02  11.83 
 12 608 - Elin Starup  06/13/2019 5:12 50.45  7.04  11.98 
 13 R110 - James Golding  06/13/2019 9:29 50.45  7.28  10.6 
 14 620 - Team Jefferson (Allan Jefferson)  06/13/2019 0:02 50.45  7.35  14 
 15 491 - BOURREAU JACQUES  06/13/2019 21:41 50.45  7.4  8.38 
 16 607 - Sabine Bird (Team Bean)  06/13/2019 9:37 50.45  7.51  10.71 
 17 424 - Team i RON man Veterans supporting Veterans  06/13/2019 10:55 50.45  7.61  10.51 
 18 R87 - Spoke Life Cycles / TRD (Lucas Spencer)  06/13/2019 13:29 50.45  7.68  9.71 
 19 R105 - 2nd Chance Racing (Craig Johnson)  06/13/2019 8:10 50.45  7.74  10.96 
 20 594 - Mauerhofer Thomas  06/13/2019 0:22 50.45  7.8  13.93 
 21 R119 - Team BlueLine (Martha Hall)  06/13/2019 8:32 50.45  7.84  10.79 
 22 R117 - ROGIE (Roger Foote)  06/13/2019 11:33 50.45  7.94  10.09 
 23 442 - Joe Barr  06/12/2019 22:04 50.45  8.12  15.08 
 24 603 - Alan Bradley  06/12/2019 23:01 50.45  8.18  14.54 
 25 568 - Alexandra Meixner  06/13/2019 1:28 50.45  8.48  13.34 
 26 R114 - Krishna Prakash  06/13/2019 12:28 50.45  8.53  9.89 
 27 R103 - Chris Davies  06/13/2019 6:14 50.45  8.62  11.51 
 28 510 - John C. Tarlton  06/13/2019 5:54 50.45  8.67  11.91 
 29 R84 - James Jason Ingels  06/13/2019 4:12 50.45  8.72  12.17 
 30 R111 - Jennifer Orr  06/12/2019 20:52 50.45  8.77  15.06 
 31 288 - Dave Haase  06/12/2019 22:16 50.45  8.96  15.03 
 32 618 - GREGORY ROBINSON  06/13/2019 5:09 50.45  9.12  12.06 
 33 R104 - Team everve Christian (Christian Beichel)  06/13/2019 1:42 50.45  9.12  13.03 
 34 611 - Marcelo Soares " MIXIRICA "  06/13/2019 5:36 50.45  9.17  11.95 
 35 621 - Themsen Ultracycling (Jacob Themsen)  06/13/2019 3:01 50.45  9.26  12.79 
 36 610 - Kabir Rachure  06/13/2019 5:41 50.45  9.29  11.93 
 37 R120 - Team Next Step (Peter Pedersen)  06/13/2019 5:13 50.45  9.31  11.77 
 38 R122 - Kirk Gentle  06/13/2019 1:49 50.45  9.31  12.93 
 39 559 - Team Martin RAAM 2019 (Martin Bergmeister)  06/13/2019 2:08 50.45  9.4  13.22 
 40 R121 - Ironmae (Rosecler Costa)  06/13/2019 2:52 50.45  9.49  12.5 
 41 623 - Ultra Paka Racing Team (Daniel Polman)  06/12/2019 22:11 50.45  9.61  14.83 
 42 367 - Daniela Genovesi  06/13/2019 4:59 50.45  9.73  12.09 
 43 R51 - Fabio Silvestri  06/12/2019 20:31 50.45  9.76  15.42 
 44 416 - Leah Goldstein  06/13/2019 0:08 50.45  9.8  13.91 
 45 617 - SOLO.kiwi (Craig Harper)  06/12/2019 20:10 50.45  9.89  15.95 
 46 612 - Markus K. Brandl  06/12/2019 20:00 50.45  10.19  16.08 
 47 604 - Chieko Ozawa  06/13/2019 0:21 50.45  10.4  13.79 
 48 527 - TALABARDON (Herve Talabardon)  06/13/2019 11:57 50.45  10.55  10.25 
 49 411 - Geoff Brunner  06/13/2019 4:22 50.45  10.7  12.44 
 50 R106 - Damaceleste.com (Valentina Tanzi)  06/13/2019 2:17 50.45  10.93  12.74 
 51 T210 - Bike Wine Team  06/16/2019 22:48 50.45  10.97  14.08 
 52 R209 - Workhorses  06/12/2019 21:12 50.45  11.29  14.79 
 53 609 - Jakob Olsen  06/12/2019 20:14 50.45  11.64  15.98 
 54 529 - Isa Pulver  06/12/2019 20:55 50.45  11.73  15.45 
 55 R124 - Andres Rodriguez  06/12/2019 19:47 50.45  11.92  15.65 
 56 349 - Mark Pattinson  06/12/2019 20:32 50.45  11.96  15.94 
 57 T805 - Team Oceanside  06/16/2019 14:39 50.45  12.21  19.3 
 58 R203 - Mike 'n' Jay Giretto con Amici  06/12/2019 19:28 50.45  12.56  15.73 
 59 161 - Seana Hogan  06/13/2019 1:10 50.45  12.56  13.49 
 60 T203 - JPsDuo  06/16/2019 21:19 50.45  12.83  14.72 
 61 R201 - IN OUR PRIME  06/12/2019 18:35 50.45  13.22  16.26 
 62 T409 - Serpentine Golden Girls  06/16/2019 21:19 50.45  13.39  14.85 
 63 T417 - Team4RAAM 2019 powered by TGW Living Logistics  06/16/2019 18:41 50.45  13.39  16.36 
 64 T417 - Team4RAAM 2019 powered by TGW Living Logistics  06/16/2019 18:41 50.45  13.39  16.36 
 65 R205 - Team OB2  06/12/2019 15:59 50.45  13.57  17.93 
 66 T402 - EA/WFP RAAM Team  06/16/2019 18:25 50.45  13.7  16.37 
 67 T207 - Team Life Time  06/16/2019 17:09 50.45  13.82  17.11 
 68 615 - Philipp Amhof  06/12/2019 23:15 50.45  13.82  14.37 
 69 T801 - Mind Over Matter  06/16/2019 19:19 50.45  14.08  16.02 
 70 T413 - TEAM BRASIL - SKIPPER  06/16/2019 17:56 50.45  14.21  16.78 
 71 T803 - Team EndoPark  06/16/2019 17:07 50.45  14.21  17.42 
 72 T208 - Team Machine  06/16/2019 18:40 50.45  14.35  16.18 
 73 T405 - High Rollers  06/16/2019 17:08 50.45  14.48  17.21 
 74 T418 - The Opportunists  06/16/2019 15:32 50.45  14.77  18.51 
 75 T403 - EKJ Denmark  06/16/2019 15:34 50.45  14.77  18.3 
 76 R400 - HTX Velo Femme  06/12/2019 16:01 50.45  14.84  17.86 
 77 R200 - EY Legacy Builders 2019  06/12/2019 15:38 50.45  14.99  18.23 
 78 T806 - Team SuperMarrow  06/16/2019 18:05 50.45  15.06  16.81 
 79 R402 - SUWOS  06/12/2019 17:39 50.45  15.06  16.74 
 80 T206 - Project Linear Acceleration  06/16/2019 15:51 50.45  15.14  18 
 81 T410 - Soap-Aid  06/16/2019 15:42 50.45  15.21  18.28 
 82 377 - Christoph Strasser  06/12/2019 15:38 50.45  15.37  19.39 
 83 T415 - TEAM FIRE VELO 935  06/16/2019 16:52 50.45  15.37  17.51 
 84 279 - Marko Baloh  06/12/2019 17:27 50.45  15.44  17.95 
 85 T414 - Brazil Nuts  06/16/2019 16:55 50.45  15.44  17.46 
 86 T807 - Team ZOE International  06/16/2019 14:24 50.45  15.52  19.54 
 87 T408 - Radeln-fuer-Kinder (Cycling-for-Kids)  06/16/2019 14:39 50.45  16.1  19.08 
 88 T202 - Integra Medical - BAA Racing  06/16/2019 14:57 50.45  16.19  18.63 
 89 T406 - Operation Walk Midwest  06/16/2019 14:48 50.45  16.45  18.93 
 90 T808 - Antonia's Friends 2019  06/16/2019 15:17 50.45  16.82  18.83 
 91 R401 - San Diego Sports Medicine/Zoca  06/12/2019 14:38 50.45  16.82  18.89 
 92 T412 - Team Aspect  06/16/2019 13:44 50.45  16.91  19.92 
 93 T400 - Cantastic4  06/16/2019 14:50 50.45  16.91  18.83 
 94 R403 - Team Viasat-Denver  06/12/2019 12:43 50.45  17.01  20.53 
 95 R404 - Team Viasat - Carlsbad  06/12/2019 11:32 50.45  17.1  21.7 
 96 T804 - Team FSHD Skyland Trail  06/16/2019 14:36 50.45  17.3  19.33 
 97 T416 - Team Rotary Raams Polio  06/16/2019 14:41 50.45  17.5  19.16 
 98 R202 - Laureus Alegra  06/12/2019 18:41 50.45  17.7  16.19 
 99 T200 - AIR RELAX GoPro TEAM BRASIL  06/16/2019 13:48 50.45  17.91  19.54 
 100 T802 - Scorchers  06/16/2019 14:00 50.45  18.35  19.82 
 101 T800 - Backstedt Racing Project 14  06/16/2019 11:18 50.45  18.35  22.48 
 102 T407 - Julian Becker   06/16/2019 13:25 50.45  18.46  20.13 
 103 T401 - Data Techniques powered by Networks Centre  06/16/2019 11:17 50.45  18.46  22.17 
 104 T201 - EAT WELL  06/16/2019 12:14 50.45  18.46  21 
 105 T411 - team alpha - tischlerei groemmer  06/16/2019 11:08 50.45  19.16  22.52 
 106 T404 - Gentlemen of speed  06/16/2019 11:46 50.45  20.59  21.7 
 107 T204 - Lucan CRC  06/16/2019 16:04 50.45  20.73  17.82